Rebel Creek, Nevada
Current Conditions -  °F | °C
As of 4:56 AM on Tuesday 21 Oct 2014 (Local Time) from KWMC Reporting Station
Clear Clear  
Wind Chill: 35°   Ceiling: Unl
Heat Index: 43°   Visibility: 10mi
Dew Point: 34°   Wind: 18mph
Humidity: 71%   Direction: 260°W
Pressure: 30.01"   Gusts: NA
Location:  41.7393°N, 118.104°W
Report Text: KWMC 211156Z AUTO 26016KT 10SM CLR 06/01 A3001 RMK AO2 SLP135 60005 70005 T00610011 10139 20050 53006
Loading
Personal Weather Stations






























Interactive Weather Map
Tropical Storm Tracking
New forecast layout! Learn more

10-Day Weather Forecast

Advertisements
Track Severe Weather on mobile